Time;durP1;ratioP1;P1;durP2;ratioP2;P2;SDS_P1;SDS_P2;PMS_P1;PMS_P2;Temp;Humidity;BMP_temperature;BMP_pressure;BME280_temperature;BME280_humidity;BME280_pressure;Samples;Min_cycle;Max_cycle;Signal;HPM_P1;HPM_P2
2022/01/02 00:00:40;;;;;;;18.30;3.33;;;;;;;15.71;88.36;100898.31;7392410;19;20456;-67
2022/01/02 00:03:08;;;;;;;16.52;1.40;;;;;;;15.70;88.21;100879.91;7392767;19;20078;-67
2022/01/02 00:05:38;;;;;;;17.25;2.08;;;;;;;15.67;88.15;100888.25;7394405;19;20080;-67
2022/01/02 00:08:10;;;;;;;11.50;1.40;;;;;;;15.72;89.25;100885.88;7390879;19;20011;-67
2022/01/02 00:10:47;;;;;;;10.27;1.15;;;;;;;15.75;88.80;100888.97;7390949;19;20046;-67
2022/01/02 00:13:23;;;;;;;10.70;1.20;;;;;;;15.71;88.45;100885.03;7394451;19;20007;-66
2022/01/02 00:15:51;;;;;;;8.98;1.45;;;;;;;15.67;88.20;100878.47;7393669;19;20089;-67
2022/01/02 00:18:20;;;;;;;7.68;0.85;;;;;;;15.63;88.92;100879.84;7390822;19;20500;-68
2022/01/02 00:20:49;;;;;;;5.20;0.60;;;;;;;15.65;88.66;100874.34;7393191;19;20021;-68
2022/01/02 00:23:21;;;;;;;6.70;0.98;;;;;;;15.66;88.93;100870.69;7393419;19;20006;-66
2022/01/02 00:25:53;;;;;;;7.03;0.80;;;;;;;15.61;88.69;100876.53;7392967;19;20007;-67
2022/01/02 00:28:20;;;;;;;12.00;1.60;;;;;;;15.59;88.60;100865.31;7391271;19;21037;-67
2022/01/02 00:30:48;;;;;;;4.20;0.55;;;;;;;15.62;89.08;100853.50;7389510;19;20031;-67
2022/01/02 00:33:18;;;;;;;4.30;0.50;;;;;;;15.64;88.80;100854.16;7389183;19;20073;-67
2022/01/02 00:35:45;;;;;;;5.72;0.55;;;;;;;15.65;88.59;100856.59;7388742;19;20011;-67
2022/01/02 00:38:20;;;;;;;5.95;0.95;;;;;;;15.65;88.25;100845.16;7391717;19;20034;-67
2022/01/02 00:40:51;;;;;;;6.00;1.05;;;;;;;15.69;89.51;100838.50;7391467;19;20460;-68
2022/01/02 00:43:25;;;;;;;;;;;;;;;15.71;88.91;100842.59;7389925;19;20038;-68
2022/01/02 00:45:59;;;;;;;5.10;0.60;;;;;;;15.66;88.04;100834.38;7393153;19;20645;-66
2022/01/02 00:48:29;;;;;;;4.10;0.40;;;;;;;15.69;88.13;100841.16;7388921;19;20051;-67
2022/01/02 00:51:03;;;;;;;7.32;2.75;;;;;;;15.66;88.12;100831.72;7389448;19;20042;-68
2022/01/02 00:53:34;;;;;;;3.78;0.65;;;;;;;15.68;88.49;100823.59;7390028;19;20018;-68
2022/01/02 00:56:04;;;;;;;3.85;0.35;;;;;;;15.66;87.76;100825.59;7389920;19;20007;-66
2022/01/02 00:58:50;;;;;;;1.92;0.40;;;;;;;15.63;87.21;100826.78;7389289;19;20010;-67
2022/01/02 01:01:24;;;;;;;4.68;0.40;;;;;;;15.59;86.97;100822.88;7390119;19;20309;-67
2022/01/02 01:03:53;;;;;;;3.30;0.65;;;;;;;15.54;88.06;100821.78;7390258;19;20018;-68
2022/01/02 01:06:25;;;;;;;5.30;0.70;;;;;;;15.55;88.19;100805.66;7388550;19;20038;-68
2022/01/02 01:08:56;;;;;;;4.18;0.40;;;;;;;15.58;88.16;100815.09;7389542;19;20011;-67
2022/01/02 01:11:26;;;;;;;3.83;1.42;;;;;;;15.57;87.87;100813.44;7387714;19;20496;-68
2022/01/02 01:13:54;;;;;;;5.88;1.08;;;;;;;15.55;87.72;100803.00;7389573;19;20617;-67
2022/01/02 01:16:21;;;;;;;4.45;0.63;;;;;;;15.54;88.29;100798.75;7388949;19;20003;-68
2022/01/02 01:18:49;;;;;;;4.93;0.40;;;;;;;15.56;87.84;100793.22;7389730;19;20026;-66
2022/01/02 01:21:17;;;;;;;9.30;0.60;;;;;;;15.55;87.57;100800.34;7389196;19;20451;-67
2022/01/02 01:23:44;;;;;;;5.82;1.30;;;;;;;15.58;87.48;100799.19;7389299;19;20010;-67
2022/01/02 01:26:12;;;;;;;5.10;0.68;;;;;;;15.59;87.91;100788.41;7389470;19;20018;-66
2022/01/02 01:28:45;;;;;;;5.07;0.40;;;;;;;15.55;87.46;100789.75;7388949;19;20006;-67
2022/01/02 01:31:12;;;;;;;2.10;0.40;;;;;;;15.57;87.26;100781.63;7390055;19;20111;-67
2022/01/02 01:33:39;;;;;;;3.30;0.50;;;;;;;15.55;87.19;100779.13;7390711;19;20372;-65
2022/01/02 01:36:06;;;;;;;5.20;0.50;;;;;;;15.55;87.17;100780.97;7392957;19;20120;-66
2022/01/02 01:38:33;;;;;;;5.53;0.88;;;;;;;15.54;87.55;100779.34;7390641;19;20011;-68
2022/01/02 01:41:14;;;;;;;4.80;0.60;;;;;;;15.54;87.46;100777.53;7387989;19;20011;-66
2022/01/02 01:43:53;;;;;;;4.50;0.60;;;;;;;15.53;86.79;100767.91;7388755;19;20499;-67
2022/01/02 01:46:20;;;;;;;5.38;0.70;;;;;;;15.54;86.89;100766.09;7391497;19;20468;-67
2022/01/02 01:48:51;;;;;;;5.80;0.60;;;;;;;15.53;87.18;100765.25;7392372;19;20014;-67
2022/01/02 01:51:18;;;;;;;5.03;0.52;;;;;;;15.55;87.88;100749.97;7389645;19;20034;-67
2022/01/02 01:53:45;;;;;;;3.78;0.88;;;;;;;15.58;87.33;100740.81;7390443;19;20011;-67
2022/01/02 01:56:12;;;;;;;4.65;0.90;;;;;;;15.56;86.77;100733.03;7389111;19;20014;-65
2022/01/02 01:58:39;;;;;;;6.57;0.93;;;;;;;15.54;86.55;100737.72;7389378;19;20476;-65
2022/01/02 02:01:06;;;;;;;9.68;1.80;;;;;;;15.57;87.42;100728.56;7390566;19;20559;-67
2022/01/02 02:03:33;;;;;;;5.60;0.60;;;;;;;15.52;86.84;100730.97;7392297;19;20509;-66
2022/01/02 02:06:00;;;;;;;6.88;0.95;;;;;;;15.46;86.76;100729.03;7388803;19;20361;-66
2022/01/02 02:08:27;;;;;;;6.40;0.60;;;;;;;15.40;86.90;100742.00;7388493;19;20030;-66
2022/01/02 02:10:57;;;;;;;14.65;2.78;;;;;;;15.38;87.04;100722.84;7389434;19;20015;-65
2022/01/02 02:13:25;;;;;;;5.07;1.02;;;;;;;15.41;88.35;100713.66;7395620;19;20321;-67
2022/01/02 02:15:52;;;;;;;5.68;0.90;;;;;;;15.41;88.02;100717.16;7394208;19;20006;-66
2022/01/02 02:18:19;;;;;;;9.35;0.73;;;;;;;15.43;87.84;100722.28;7394665;19;20112;-67
2022/01/02 02:20:46;;;;;;;2.67;0.50;;;;;;;15.40;87.55;100710.19;7396984;19;20030;-67
2022/01/02 02:23:14;;;;;;;5.82;1.45;;;;;;;15.37;87.68;100702.63;7397021;19;20010;-66
2022/01/02 02:25:43;;;;;;;7.75;0.70;;;;;;;15.38;88.06;100698.97;7394301;19;20010;-67
2022/01/02 02:28:14;;;;;;;4.82;0.45;;;;;;;15.38;87.96;100695.50;7395142;19;20014;-68
2022/01/02 02:30:44;;;;;;;4.50;0.40;;;;;;;15.34;87.83;100702.97;7394442;19;20007;-67
2022/01/02 02:33:13;;;;;;;3.95;0.73;;;;;;;15.31;87.98;100699.88;7395561;19;20031;-67
2022/01/02 02:35:41;;;;;;;5.95;0.73;;;;;;;15.29;88.45;100693.94;7392962;19;20046;-66
2022/01/02 02:38:10;;;;;;;7.28;0.75;;;;;;;15.27;88.25;100703.94;7394571;19;20047;-68
2022/01/02 02:40:37;;;;;;;3.47;0.50;;;;;;;15.26;88.28;100697.81;7394855;19;20357;-67
2022/01/02 02:43:14;;;;;;;6.28;0.77;;;;;;;15.22;88.45;100690.41;7394639;19;20021;-66
2022/01/02 02:50:55;;;;;;;9.15;0.60;;;;;;;15.23;88.99;100674.34;7392985;19;20015;-67
2022/01/02 02:53:22;;;;;;;3.72;0.50;;;;;;;15.22;88.77;100679.81;7395259;19;20010;-66
2022/01/02 02:55:55;;;;;;;9.02;0.50;;;;;;;15.23;88.84;100678.81;7396118;19;20014;-67
2022/01/02 03:00:52;;;;;;;6.57;0.50;;;;;;;15.25;89.74;100661.69;7395595;19;20528;-66
2022/01/02 03:03:19;;;;;;;5.28;0.50;;;;;;;15.25;89.49;100663.53;7396490;19;20007;-67
2022/01/02 03:05:46;;;;;;;9.23;0.60;;;;;;;15.22;89.27;100656.78;7396169;19;20010;-68
2022/01/02 03:08:13;;;;;;;8.60;1.48;;;;;;;15.22;89.61;100659.44;7394533;19;20018;-66
2022/01/02 03:10:40;;;;;;;5.50;0.98;;;;;;;15.26;90.42;100649.25;7395060;19;20566;-67
2022/01/02 03:13:07;;;;;;;5.72;0.50;;;;;;;15.29;90.31;100654.16;7393987;19;20043;-66
2022/01/02 03:15:34;;;;;;;4.78;0.40;;;;;;;15.29;90.03;100646.22;7396252;19;20018;-67
2022/01/02 03:18:01;;;;;;;9.18;0.63;;;;;;;15.22;90.02;100645.34;7394098;19;20029;-67
2022/01/02 03:20:28;;;;;;;5.55;0.75;;;;;;;15.19;90.30;100635.94;7394142;19;20011;-65
2022/01/02 03:22:54;;;;;;;7.68;0.40;;;;;;;15.16;90.68;100630.19;7394535;19;20006;-68
2022/01/02 03:25:21;;;;;;;8.68;0.60;;;;;;;15.14;90.80;100627.72;7395276;19;20011;-69
2022/01/02 03:27:48;;;;;;;5.18;0.40;;;;;;;15.12;90.67;100621.81;7393596;19;20017;-66
2022/01/02 03:30:15;;;;;;;5.65;0.30;;;;;;;15.12;90.86;100616.50;7393910;19;20022;-67
2022/01/02 03:32:42;;;;;;;8.48;0.73;;;;;;;15.10;91.30;100607.06;7395259;19;20482;-66
2022/01/02 03:35:09;;;;;;;5.35;0.40;;;;;;;15.09;91.37;100614.22;7393015;19;20046;-66
2022/01/02 03:37:36;;;;;;;3.97;0.30;;;;;;;15.10;91.34;100613.19;7393323;19;20046;-66
2022/01/02 03:40:06;;;;;;;5.40;0.50;;;;;;;15.10;91.30;100609.72;7393664;19;20118;-67
2022/01/02 03:42:34;;;;;;;14.55;2.83;;;;;;;15.13;91.69;100602.25;7389170;19;20010;-65
2022/01/02 03:45:02;;;;;;;3.55;0.50;;;;;;;15.14;91.84;100598.56;7388056;19;20034;-66
2022/01/02 03:47:30;;;;;;;5.90;0.60;;;;;;;15.15;91.59;100596.72;7390725;19;20010;-66
2022/01/02 03:49:57;;;;;;;6.85;0.50;;;;;;;15.16;91.46;100588.59;7389247;19;20007;-66
2022/01/02 03:52:25;;;;;;;4.13;0.73;;;;;;;15.16;91.21;100582.47;7388864;19;20014;-66
2022/01/02 03:54:52;;;;;;;10.10;0.70;;;;;;;15.13;91.86;100574.91;7392923;19;20055;-67
2022/01/02 03:57:20;;;;;;;6.43;0.65;;;;;;;15.09;91.54;100573.63;7393321;19;20035;-66
2022/01/02 03:59:47;;;;;;;7.50;0.63;;;;;;;15.09;91.83;100581.56;7389415;19;20035;-65
2022/01/02 04:02:14;;;;;;;2.72;0.60;;;;;;;15.11;92.04;100577.75;7392599;19;20013;-67
2022/01/02 04:04:41;;;;;;;1.92;0.40;;;;;;;15.04;91.88;100581.31;7389851;19;20520;-66
2022/01/02 04:10:40;;;;;;;4.18;0.40;;;;;;;15.06;93.07;100558.13;7390318;19;20039;-66
2022/01/02 04:13:07;;;;;;;1.92;0.40;;;;;;;15.04;92.86;100544.22;7390376;19;20021;-67
2022/01/02 04:15:34;;;;;;;3.30;0.30;;;;;;;15.03;92.85;100547.91;7390699;19;20019;-66
2022/01/02 04:18:01;;;;;;;1.63;0.40;;;;;;;15.02;93.67;100554.22;7388375;19;20439;-66
2022/01/02 04:20:28;;;;;;;3.03;0.40;;;;;;;15.01;93.47;100558.69;7387439;19;20021;-66
2022/01/02 04:22:55;;;;;;;1.98;0.30;;;;;;;14.97;93.32;100562.72;7387905;19;20006;-66
2022/01/02 04:25:22;;;;;;;1.88;0.30;;;;;;;14.93;93.17;100546.34;7389422;19;20038;-66
2022/01/02 04:27:49;;;;;;;18.88;2.83;;;;;;;14.93;93.29;100551.66;7392082;19;20416;-66
2022/01/02 04:30:16;;;;;;;5.13;0.65;;;;;;;14.93;93.49;100559.59;7391791;19;20030;-68
2022/01/02 04:32:43;;;;;;;2.35;0.30;;;;;;;14.90;93.24;100548.56;7386681;19;20010;-66
2022/01/02 04:35:10;;;;;;;2.50;0.30;;;;;;;14.90;93.34;100545.94;7384624;19;20014;-66
2022/01/02 04:37:37;;;;;;;2.25;0.20;;;;;;;14.88;93.22;100540.81;7387955;19;20019;-66
2022/01/02 04:40:06;;;;;;;2.75;0.30;;;;;;;14.86;93.30;100542.84;7387800;19;20504;-66
2022/01/02 04:42:32;;;;;;;2.75;0.40;;;;;;;14.90;93.60;100543.28;7387964;19;20015;-66
2022/01/02 04:44:59;;;;;;;2.83;0.30;;;;;;;14.86;92.95;100534.06;7389591;19;20122;-67
2022/01/02 04:47:26;;;;;;;2.33;0.40;;;;;;;14.79;92.28;100528.69;7387075;19;20007;-67
2022/01/02 04:49:53;;;;;;;1.73;0.35;;;;;;;14.78;92.20;100534.19;7389669;19;20066;-65
2022/01/02 04:52:20;;;;;;;1.33;0.40;;;;;;;14.77;92.26;100529.91;7386303;19;20017;-67
2022/01/02 04:54:47;;;;;;;2.88;0.30;;;;;;;14.74;92.45;100533.72;7385304;19;20018;-66
2022/01/02 04:57:14;;;;;;;2.10;0.40;;;;;;;14.72;92.49;100535.75;7390355;19;20018;-66
2022/01/02 04:59:41;;;;;;;6.55;0.40;;;;;;;14.74;92.30;100532.91;7388991;19;20017;-66
2022/01/02 05:02:08;;;;;;;3.00;0.55;;;;;;;14.76;92.29;100534.38;7388720;19;20479;-65
2022/01/02 05:04:35;;;;;;;2.72;0.60;;;;;;;14.77;92.19;100536.03;7388146;19;20014;-66
2022/01/02 05:07:03;;;;;;;6.97;1.10;;;;;;;14.74;91.56;100535.56;7387432;19;20015;-66
2022/01/02 05:09:30;;;;;;;4.90;0.85;;;;;;;14.74;91.98;100540.84;7386769;19;20010;-65
2022/01/02 05:11:57;;;;;;;4.68;0.75;;;;;;;14.75;92.30;100547.78;7386142;19;20014;-66
2022/01/02 05:14:24;;;;;;;6.93;0.50;;;;;;;14.69;92.48;100544.06;7387460;19;20010;-65
2022/01/02 05:16:51;;;;;;;6.32;0.50;;;;;;;14.70;92.73;100536.94;7388546;19;20021;-66
2022/01/02 05:19:18;;;;;;;7.93;0.63;;;;;;;14.70;93.00;100526.34;7392211;19;20111;-66
2022/01/02 05:21:45;;;;;;;8.18;0.60;;;;;;;14.70;92.80;100482.16;7388697;19;20599;-65
2022/01/02 05:24:12;;;;;;;6.82;0.52;;;;;;;14.69;92.27;100496.38;7386372;19;20018;-66
2022/01/02 05:26:39;;;;;;;6.22;0.65;;;;;;;14.72;92.68;100464.25;7390910;19;20017;-73
2022/01/02 05:29:06;;;;;;;7.35;0.70;;;;;;;14.70;92.61;100429.19;7388255;19;20147;-67
2022/01/02 05:31:33;;;;;;;6.75;0.63;;;;;;;14.71;92.25;100441.41;7385662;19;20600;-67
2022/01/02 05:34:00;;;;;;;9.02;0.90;;;;;;;14.73;92.20;100457.91;7390715;19;20015;-67
2022/01/02 05:36:27;;;;;;;2.88;0.50;;;;;;;14.73;92.41;100457.91;7386401;19;20007;-67
2022/01/02 05:38:54;;;;;;;8.93;0.70;;;;;;;14.68;91.87;100457.66;7388058;19;20475;-66
2022/01/02 05:41:21;;;;;;;6.82;0.50;;;;;;;14.69;91.72;100461.97;7388057;19;20022;-66
2022/01/02 05:43:48;;;;;;;4.53;0.52;;;;;;;14.70;91.71;100466.25;7389102;19;20038;-66
2022/01/02 05:46:16;;;;;;;6.32;0.95;;;;;;;14.70;91.58;100476.03;7391277;19;20011;-66
2022/01/02 05:48:43;;;;;;;6.97;1.25;;;;;;;14.68;91.19;100472.75;7392485;19;20028;-65
2022/01/02 05:51:10;;;;;;;4.97;0.50;;;;;;;14.61;90.44;100475.34;7394644;19;19999;-67
2022/01/02 05:53:37;;;;;;;5.85;0.65;;;;;;;14.58;90.63;100467.75;7394117;19;20021;-67
2022/01/02 05:56:05;;;;;;;6.90;0.60;;;;;;;14.56;90.48;100475.06;7396653;19;20007;-66
2022/01/02 05:58:32;;;;;;;6.07;1.25;;;;;;;14.56;90.14;100480.38;7397811;19;20011;-67
2022/01/02 06:00:59;;;;;;;2.92;0.30;;;;;;;14.55;89.89;100478.72;7393190;19;20010;-65
2022/01/02 06:03:27;;;;;;;5.80;0.40;;;;;;;14.58;88.72;100480.19;7391939;19;20021;-67
2022/01/02 06:05:54;;;;;;;4.35;0.32;;;;;;;14.53;87.60;100484.19;7392117;19;20011;-67
2022/01/02 06:08:21;;;;;;;1.98;0.30;;;;;;;14.54;87.77;100485.84;7398306;19;20748;-67
2022/01/02 06:10:48;;;;;;;2.47;0.65;;;;;;;14.48;86.81;100478.66;7392505;19;20010;-68
2022/01/02 06:13:15;;;;;;;5.13;0.50;;;;;;;14.48;87.47;100488.41;7390103;19;20515;-68
2022/01/02 06:15:42;;;;;;;4.63;0.20;;;;;;;14.45;86.79;100483.50;7392620;19;20015;-68
2022/01/02 06:18:09;;;;;;;4.22;0.32;;;;;;;14.44;86.44;100484.50;7393760;19;20887;-66
2022/01/02 06:20:36;;;;;;;4.80;0.25;;;;;;;14.42;85.84;100481.25;7392416;19;20011;-66
2022/01/02 06:23:03;;;;;;;2.17;0.40;;;;;;;14.43;86.67;100488.16;7393964;19;20130;-66
2022/01/02 06:25:30;;;;;;;3.25;0.30;;;;;;;14.39;85.35;100481.59;7393982;19;20027;-66
2022/01/02 06:27:57;;;;;;;2.33;0.40;;;;;;;14.34;85.54;100490.06;7393749;19;20017;-67
2022/01/02 06:30:24;;;;;;;3.40;0.20;;;;;;;14.35;85.66;100493.53;7393596;19;20011;-67
2022/01/02 06:32:55;;;;;;;2.05;0.20;;;;;;;14.30;85.14;100499.38;7392008;19;20026;-67
2022/01/02 06:35:25;;;;;;;2.88;0.22;;;;;;;14.28;85.93;100504.03;7390925;19;20034;-67
2022/01/02 06:37:53;;;;;;;1.75;0.20;;;;;;;14.28;85.43;100508.50;7392269;19;20031;-67
2022/01/02 06:40:22;;;;;;;1.15;0.20;;;;;;;14.25;84.69;100508.88;7394926;19;20353;-67
2022/01/02 06:42:49;;;;;;;3.10;0.20;;;;;;;14.23;84.74;100513.53;7391357;19;20006;-68
2022/01/02 06:45:16;;;;;;;1.70;0.10;;;;;;;14.24;84.87;100521.28;7392664;19;20037;-67
2022/01/02 06:47:43;;;;;;;2.65;0.15;;;;;;;14.24;85.51;100523.13;7391410;19;20010;-67
2022/01/02 06:50:12;;;;;;;1.95;0.10;;;;;;;14.26;85.15;100518.47;7391917;19;20018;-67
2022/01/02 06:52:39;;;;;;;1.75;0.10;;;;;;;14.25;84.84;100517.66;7389702;19;20134;-68
2022/01/02 06:55:07;;;;;;;4.47;0.38;;;;;;;14.21;84.60;100523.50;7393715;19;20361;-67
2022/01/02 06:57:34;;;;;;;2.88;0.30;;;;;;;14.22;84.84;100527.78;7392371;19;20015;-66
2022/01/02 07:00:04;;;;;;;3.22;0.10;;;;;;;14.20;84.36;100535.91;7394915;19;20015;-67
2022/01/02 07:02:31;;;;;;;2.25;0.13;;;;;;;14.22;84.47;100533.88;7396043;19;20019;-67
2022/01/02 07:04:58;;;;;;;5.05;0.10;;;;;;;14.24;84.16;100528.41;7392194;19;20453;-67
2022/01/02 07:07:25;;;;;;;1.30;0.10;;;;;;;14.24;83.76;100541.63;7394886;19;20015;-67
2022/01/02 07:09:52;;;;;;;2.42;0.17;;;;;;;14.26;84.32;100537.81;7390678;19;20388;-66
2022/01/02 07:12:19;;;;;;;1.80;0.10;;;;;;;14.28;84.06;100541.09;7389009;19;20010;-68
2022/01/02 07:14:46;;;;;;;1.55;0.00;;;;;;;14.28;83.57;100535.78;7389754;19;20464;-68
2022/01/02 07:17:13;;;;;;;1.05;0.10;;;;;;;14.29;83.78;100536.63;7390267;19;20054;-67
2022/01/02 07:19:40;;;;;;;1.30;0.40;;;;;;;14.26;83.51;100539.63;7395537;19;20015;-68
2022/01/02 07:22:09;;;;;;;4.57;0.20;;;;;;;14.25;84.02;100549.41;7390434;19;20679;-67
2022/01/02 07:24:36;;;;;;;3.00;0.20;;;;;;;14.27;83.58;100562.47;7389418;19;20340;-67
2022/01/02 07:27:06;;;;;;;2.10;0.10;;;;;;;14.24;83.19;100568.09;7394041;19;20003;-67
2022/01/02 07:29:33;;;;;;;3.17;0.10;;;;;;;14.21;82.81;100563.19;7395891;19;20010;-68
2022/01/02 07:32:00;;;;;;;3.88;0.28;;;;;;;14.20;84.32;100566.84;7390665;19;20014;-67
2022/01/02 07:34:27;;;;;;;2.90;0.20;;;;;;;14.20;83.62;100577.41;7392681;19;20475;-67
2022/01/02 07:36:54;;;;;;;3.05;0.10;;;;;;;14.16;83.42;100569.03;7387480;19;20476;-67
2022/01/02 07:39:21;;;;;;;1.48;0.10;;;;;;;14.13;83.39;100574.66;7393390;19;20006;-66
2022/01/02 07:41:48;;;;;;;5.05;0.28;;;;;;;14.10;82.95;100577.69;7391853;19;20479;-67
2022/01/02 07:44:16;;;;;;;1.02;0.10;;;;;;;14.10;83.39;100580.34;7392492;19;20042;-66
2022/01/02 07:46:43;;;;;;;4.50;0.20;;;;;;;14.08;83.46;100593.75;7391156;19;20482;-67
2022/01/02 07:49:10;;;;;;;2.13;0.10;;;;;;;14.07;83.37;100593.91;7395110;19;20756;-66
2022/01/02 07:51:37;;;;;;;2.95;0.17;;;;;;;14.06;83.61;100598.41;7394987;19;20034;-68
2022/01/02 07:54:03;;;;;;;4.45;0.30;;;;;;;14.08;83.92;100611.44;7391372;19;20355;-66
2022/01/02 07:56:30;;;;;;;2.70;0.17;;;;;;;14.08;83.36;100619.38;7393339;19;20011;-66
2022/01/02 07:58:58;;;;;;;4.13;0.10;;;;;;;14.06;82.76;100619.56;7393469;19;20519;-67
2022/01/02 08:01:26;;;;;;;3.97;0.40;;;;;;;14.05;83.28;100630.31;7395751;19;20025;-67
2022/01/02 08:03:54;;;;;;;3.65;0.10;;;;;;;14.04;82.87;100636.63;7389721;19;20006;-67
2022/01/02 08:06:21;;;;;;;2.55;0.10;;;;;;;14.03;82.97;100650.84;7389621;19;20658;-67
2022/01/02 08:08:48;;;;;;;1.75;0.10;;;;;;;13.98;83.16;100648.72;7390594;19;20022;-67
2022/01/02 08:11:16;;;;;;;5.65;0.80;;;;;;;13.95;82.73;100645.63;7391030;19;20026;-67
2022/01/02 08:14:03;;;;;;;5.47;0.30;;;;;;;13.94;82.88;100667.78;7391065;19;20434;-68
2022/01/02 08:16:30;;;;;;;4.07;0.20;;;;;;;13.90;83.42;100675.28;7396832;19;20014;-66
2022/01/02 08:18:58;;;;;;;3.25;0.10;;;;;;;13.92;83.97;100673.25;7396653;19;20055;-67
2022/01/02 08:21:24;;;;;;;1.45;0.10;;;;;;;13.91;83.67;100687.50;7389279;19;20010;-67
2022/01/02 08:23:51;;;;;;;5.70;1.58;;;;;;;13.88;82.85;100687.00;7394920;19;20010;-66
2022/01/02 08:26:20;;;;;;;3.67;0.10;;;;;;;13.85;82.79;100685.56;7393032;19;20034;-68
2022/01/02 08:28:47;;;;;;;1.95;0.10;;;;;;;13.88;83.79;100689.66;7391789;19;20026;-66
2022/01/02 08:31:14;;;;;;;4.28;0.10;;;;;;;13.86;83.69;100687.22;7387776;19;20014;-66
2022/01/02 08:33:41;;;;;;;2.85;0.10;;;;;;;13.83;83.86;100684.91;7389529;19;20836;-66
2022/01/02 08:36:08;;;;;;;4.40;0.10;;;;;;;13.80;83.26;100692.38;7391653;19;20011;-66
2022/01/02 08:38:38;;;;;;;3.38;0.10;;;;;;;13.79;83.85;100691.56;7389172;19;20018;-67
2022/01/02 08:41:05;;;;;;;4.00;0.10;;;;;;;13.76;84.05;100686.63;7393889;19;20382;-66
2022/01/02 08:43:32;;;;;;;1.55;0.10;;;;;;;13.76;84.07;100689.28;7391074;19;20018;-68
2022/01/02 08:45:59;;;;;;;2.38;0.10;;;;;;;13.75;84.06;100692.91;7390022;19;20011;-67
2022/01/02 08:48:26;;;;;;;3.08;0.25;;;;;;;13.78;84.05;100699.66;7389246;19;20017;-67
2022/01/02 08:50:53;;;;;;;1.67;0.20;;;;;;;13.78;84.05;100697.00;7390014;19;20479;-66
2022/01/02 08:54:14;;;;;;;3.45;0.30;;;;;;;13.79;84.42;100704.78;7391802;19;20034;-67
2022/01/02 08:56:41;;;;;;;1.80;0.10;;;;;;;13.82;83.83;100708.88;7393554;19;20018;-66
2022/01/02 08:59:07;;;;;;;2.80;0.10;;;;;;;13.84;83.55;100706.88;7393681;19;20365;-67
2022/01/02 09:01:34;;;;;;;5.53;0.40;;;;;;;13.85;83.38;100708.53;7392203;19;20018;-66
2022/01/02 09:04:01;;;;;;;2.50;0.30;;;;;;;13.84;83.44;100709.53;7389069;19;20007;-67
2022/01/02 09:06:29;;;;;;;1.92;0.20;;;;;;;13.82;83.46;100722.09;7393872;19;20014;-67
2022/01/02 09:08:56;;;;;;;2.35;0.10;;;;;;;13.84;83.45;100722.75;7389215;19;20017;-66
2022/01/02 09:11:23;;;;;;;2.92;0.10;;;;;;;13.86;83.54;100724.25;7390624;19;20563;-66
2022/01/02 09:13:50;;;;;;;2.63;0.20;;;;;;;13.87;82.91;100725.03;7386463;19;20358;-67
2022/01/02 09:16:17;;;;;;;3.75;0.10;;;;;;;13.90;83.15;100725.53;7388826;19;20102;-66
2022/01/02 09:18:44;;;;;;;4.20;1.00;;;;;;;13.96;83.44;100716.06;7388786;19;20345;-66
2022/01/02 09:21:11;;;;;;;3.50;0.95;;;;;;;13.96;82.77;100716.88;7391992;19;20007;-67
2022/01/02 09:23:38;;;;;;;2.63;0.30;;;;;;;13.99;81.97;100710.41;7397674;19;20050;-67
2022/01/02 09:26:05;;;;;;;2.45;0.20;;;;;;;14.01;82.22;100711.06;7396254;19;20010;-67
2022/01/02 09:28:32;;;;;;;2.63;0.20;;;;;;;14.01;82.16;100717.19;7398207;19;20006;-67
2022/01/02 09:30:59;;;;;;;2.47;0.13;;;;;;;13.99;81.72;100718.34;7396309;19;20011;-67
2022/01/02 09:33:26;;;;;;;3.45;0.35;;;;;;;13.97;81.00;100721.16;7395943;19;20349;-67
2022/01/02 09:35:53;;;;;;;1.13;0.30;;;;;;;13.98;81.55;100720.16;7396729;19;20003;-66
2022/01/02 09:38:20;;;;;;;2.67;0.10;;;;;;;13.94;80.16;100726.00;7396875;19;20030;-67
2022/01/02 09:40:47;;;;;;;3.25;0.15;;;;;;;13.92;80.61;100723.50;7398619;19;20712;-66
2022/01/02 09:43:18;;;;;;;1.95;0.10;;;;;;;13.91;79.83;100721.06;7395097;19;20030;-67
2022/01/02 09:45:46;;;;;;;2.15;0.35;;;;;;;13.95;80.05;100717.06;7394290;19;20348;-67
2022/01/02 09:48:14;;;;;;;3.08;0.10;;;;;;;13.98;80.41;100704.28;7398800;19;20011;-67
2022/01/02 09:50:41;;;;;;;2.17;0.10;;;;;;;14.01;79.68;100716.34;7394879;19;20003;-68
2022/01/02 09:53:08;;;;;;;2.70;0.10;;;;;;;14.06;80.14;100725.41;7395297;19;20468;-66
2022/01/02 09:55:36;;;;;;;4.85;0.20;;;;;;;14.09;79.42;100718.91;7394827;19;20014;-66
2022/01/02 09:58:09;;;;;;;5.95;0.60;;;;;;;14.13;79.70;100734.25;7395726;19;20006;-67
2022/01/02 10:00:38;;;;;;;2.92;0.10;;;;;;;14.18;79.44;100728.44;7397419;19;20042;-68
2022/01/02 10:03:08;;;;;;;1.98;0.10;;;;;;;14.25;79.50;100733.84;7397986;19;20007;-66
2022/01/02 10:05:41;;;;;;;6.43;0.30;;;;;;;14.27;78.95;100722.09;7397301;19;20007;-68
2022/01/02 10:08:23;;;;;;;2.13;0.20;;;;;;;14.30;79.22;100734.94;7393293;19;20029;-68
2022/01/02 10:11:04;;;;;;;1.92;0.10;;;;;;;14.29;78.15;100708.66;7394664;19;20002;-67
2022/01/02 10:13:43;;;;;;;1.65;0.10;;;;;;;14.27;76.80;100713.31;7392093;19;20019;-67
2022/01/02 10:16:18;;;;;;;1.95;0.13;;;;;;;14.27;77.87;100713.31;7394895;19;20014;-66
2022/01/02 10:18:46;;;;;;;1.25;0.45;;;;;;;14.32;78.08;100716.25;7393122;19;20007;-66
2022/01/02 10:21:26;;;;;;;1.60;0.10;;;;;;;14.37;77.96;100713.91;7392506;19;20006;-67
2022/01/02 10:24:06;;;;;;;1.85;0.10;;;;;;;14.46;78.58;100720.78;7396928;19;20030;-66
2022/01/02 10:26:36;;;;;;;1.85;0.10;;;;;;;14.52;77.58;100723.53;7392950;19;20007;-68
2022/01/02 10:29:11;;;;;;;3.60;0.13;;;;;;;14.61;77.46;100726.91;7396184;19;21373;-69
2022/01/02 10:31:38;;;;;;;1.65;0.10;;;;;;;14.60;75.55;100719.97;7391302;19;20019;-67
2022/01/02 10:34:06;;;;;;;2.50;0.22;;;;;;;14.63;77.09;100705.56;7394223;19;20018;-66
2022/01/02 10:36:36;;;;;;;1.48;0.10;;;;;;;14.64;76.24;100708.00;7392395;19;20014;-67
2022/01/02 10:39:09;;;;;;;3.58;0.10;;;;;;;14.60;75.29;100713.84;7392428;19;20006;-67
2022/01/02 10:41:39;;;;;;;0.38;0.03;;;;;;;14.53;75.45;100711.91;7391821;19;20104;-67
2022/01/02 10:44:12;;;;;;;2.17;0.10;;;;;;;14.50;75.86;100708.81;7393571;19;20034;-68
2022/01/02 10:46:39;;;;;;;5.60;0.30;;;;;;;14.47;76.38;100714.47;7396966;19;20630;-67
2022/01/02 10:49:06;;;;;;;2.22;0.17;;;;;;;14.53;76.81;100709.25;7394859;19;20018;-67
2022/01/02 10:51:33;;;;;;;4.57;0.30;;;;;;;14.59;76.18;100707.72;7392181;19;20011;-67
2022/01/02 10:54:01;;;;;;;2.88;0.15;;;;;;;14.66;76.02;100713.13;7390892;19;20010;-66
2022/01/02 10:56:31;;;;;;;1.05;0.10;;;;;;;14.71;75.89;100706.28;7391614;19;20003;-65
2022/01/02 10:58:58;;;;;;;4.22;0.10;;;;;;;14.74;75.38;100699.78;7394624;19;20010;-66
2022/01/02 11:01:26;;;;;;;3.95;0.20;;;;;;;14.77;75.96;100704.72;7391728;19;20024;-67
2022/01/02 11:03:54;;;;;;;2.95;0.20;;;;;;;14.79;75.55;100700.03;7393566;19;20031;-68
2022/01/02 11:06:27;;;;;;;1.42;0.20;;;;;;;14.78;75.04;100698.44;7390666;19;20389;-68
2022/01/02 11:08:58;;;;;;;2.50;0.10;;;;;;;14.82;75.67;100702.34;7391411;19;20011;-67
2022/01/02 11:11:25;;;;;;;3.65;0.10;;;;;;;14.83;75.12;100706.66;7393736;19;20494;-66
2022/01/02 11:13:52;;;;;;;4.43;0.20;;;;;;;14.78;74.31;100707.16;7388538;19;20011;-67
2022/01/02 11:16:19;;;;;;;6.00;0.20;;;;;;;14.75;74.77;100702.25;7390272;19;20018;-67
2022/01/02 11:18:47;;;;;;;1.70;0.30;;;;;;;14.73;75.48;100701.59;7392995;19;20460;-67
2022/01/02 11:21:15;;;;;;;3.13;0.17;;;;;;;14.73;76.10;100700.81;7393663;19;20070;-68
2022/01/02 11:23:52;;;;;;;1.80;0.10;;;;;;;14.73;75.50;100692.84;7397945;19;20013;-67
2022/01/02 11:26:29;;;;;;;3.33;0.10;;;;;;;14.70;74.94;100699.31;7390237;19;20025;-66
2022/01/02 11:29:12;;;;;;;3.35;0.10;;;;;;;14.70;75.98;100701.97;7392884;19;20017;-67
2022/01/02 11:31:43;;;;;;;3.35;0.20;;;;;;;14.70;75.82;100690.56;7388841;19;20467;-66
2022/01/02 11:34:16;;;;;;;2.13;0.10;;;;;;;14.65;75.78;100695.56;7393923;19;20046;-68
2022/01/02 11:36:43;;;;;;;3.75;0.10;;;;;;;14.66;76.33;100692.75;7391451;19;19998;-67
2022/01/02 11:39:11;;;;;;;4.18;0.17;;;;;;;14.63;75.14;100692.31;7391947;19;20015;-66
2022/01/02 11:41:43;;;;;;;3.67;0.28;;;;;;;14.61;76.16;100681.06;7391984;19;20443;-67